Date,TemperatureHighF,TemperatureAvgF,TemperatureLowF,DewpointHighF,DewpointAvgF,DewpointLowF,HumidityHigh,HumidityAvg,HumidityLow,PressureMaxIn,PressureMinIn,WindSpeedMaxMPH,WindSpeedAvgMPH,GustSpeedMaxMPH,PrecipitationSumIn
2013-1-1,32.1,17.1,11.1,31.0,-13.6,-99.9,95,63,76,29.34,29.21,4,-284,9,0.00
2013-1-2,20.4,10.3,2.4,13.0,-18.2,-99.9,93,60,56,29.43,29.32,2,-231,3,0.00
2013-1-3,31.8,18.9,9.2,26.0,-9.0,-99.9,86,61,71,29.46,29.35,6,-224,14,0.00
2013-1-4,29.4,19.6,16.5,22.0,-5.2,-99.9,88,62,68,29.48,29.43,10,-198,14,0.00
2013-1-5,38.7,24.4,18.7,32.0,0.2,-99.9,94,67,67,29.49,29.29,5,-207,10,0.06
2013-1-6,35.6,21.4,24.7,33.0,-7.6,-99.9,91,64,83,30.36,29.17,9,-274,15,0.03
2013-1-7,34.5,25.7,14.1,27.0,22.0,12.0,95,86,74,30.47,30.24,6,1,11,0.00
2013-1-8,43.3,33.3,22.7,32.0,27.6,20.0,93,80,64,30.30,30.20,5,1,8,0.00
2013-1-9,47.6,40.7,30.2,40.0,35.1,28.0,94,81,64,30.51,30.17,8,2,13,0.05
2013-1-10,43.9,35.4,25.3,40.0,31.0,24.0,96,84,70,30.51,30.05,11,2,14,0.03
2013-1-11,58.1,52.6,44.5,54.0,49.2,41.0,97,88,78,30.05,29.81,9,2,14,0.66
2013-1-12,63.6,55.3,51.0,58.0,52.4,48.0,98,90,77,29.96,29.67,7,1,12,1.06
2013-1-13,60.8,40.0,23.8,60.0,38.8,21.0,98,95,88,30.18,29.61,8,2,15,1.22
2013-1-14,23.6,21.3,18.2,21.0,17.8,15.0,90,86,80,30.48,30.19,7,2,11,0.00
2013-1-15,31.1,25.5,18.6,24.0,20.5,17.0,92,81,68,30.43,30.12,8,2,12,0.00
2013-1-16,35.5,29.2,23.8,26.0,24.3,22.0,94,82,63,30.12,29.97,5,1,9,0.00
2013-1-17,39.1,31.5,20.2,32.0,25.5,15.0,91,79,65,30.42,30.09,7,2,13,0.00
2013-1-18,38.8,28.5,16.2,27.0,21.1,14.0,93,75,52,30.50,30.14,9,2,18,0.00
2013-1-19,52.4,42.7,34.9,38.0,30.8,26.0,75,63,51,30.14,29.84,14,4,18,0.00
2013-1-20,45.2,26.9,21.8,37.0,17.0,12.0,77,66,58,30.25,29.86,13,3,22,0.00
2013-1-21,21.9,15.3,8.1,14.0,7.5,-1.0,82,71,61,30.28,30.13,12,4,18,0.00
2013-1-22,15.2,9.4,3.5,3.0,0.3,-2.0,80,67,55,30.43,30.28,8,3,17,0.00
2013-1-23,21.6,16.3,8.1,15.0,7.6,1.0,82,69,51,30.39,30.13,8,1,19,0.00
2013-1-24,23.6,17.2,8.3,14.0,8.6,4.0,86,70,51,30.64,30.19,6,2,16,0.00
2013-1-25,27.1,22.7,18.2,21.0,16.3,9.0,89,77,63,30.46,30.05,6,1,11,0.00
2013-1-26,28.4,20.5,12.2,20.0,15.3,10.0,92,81,68,30.46,30.11,3,1,10,0.00
2013-1-27,36.5,27.2,13.9,35.0,22.7,12.0,95,83,72,30.46,30.09,9,2,13,0.33
2013-1-28,50.7,46.6,36.8,50.0,45.6,36.0,98,96,93,30.11,29.96,10,3,14,0.15
2013-1-29,62.5,56.5,50.6,58.0,54.4,50.0,98,92,86,29.98,29.43,10,4,18,0.00
2013-1-30,65.0,47.6,28.6,60.0,45.2,26.0,98,91,83,29.52,29.20,18,4,29,0.92
2013-1-31,28.1,21.9,10.9,25.0,16.7,5.0,91,80,73,30.10,29.54,13,5,21,0.00